sensor_id;sensor_type;location;lat;lon;timestamp;temperature;humidity
22635;DHT22;11484;50.858;4.384;2023-06-14T00:01:46;23.30;53.00
22635;DHT22;11484;50.858;4.384;2023-06-14T00:04:13;23.20;53.10
22635;DHT22;11484;50.858;4.384;2023-06-14T00:06:39;23.10;53.50
22635;DHT22;11484;50.858;4.384;2023-06-14T00:09:05;22.90;53.90
22635;DHT22;11484;50.858;4.384;2023-06-14T00:11:31;22.80;54.20
22635;DHT22;11484;50.858;4.384;2023-06-14T00:13:57;22.80;54.30
22635;DHT22;11484;50.858;4.384;2023-06-14T00:16:23;22.70;54.20
22635;DHT22;11484;50.858;4.384;2023-06-14T00:18:49;22.70;54.30
22635;DHT22;11484;50.858;4.384;2023-06-14T00:21:17;22.70;54.30
22635;DHT22;11484;50.858;4.384;2023-06-14T00:23:43;22.60;54.50
22635;DHT22;11484;50.858;4.384;2023-06-14T00:26:08;22.60;54.50
22635;DHT22;11484;50.858;4.384;2023-06-14T00:28:34;22.50;54.60
22635;DHT22;11484;50.858;4.384;2023-06-14T00:31:00;22.30;55.00
22635;DHT22;11484;50.858;4.384;2023-06-14T00:33:25;22.30;55.30
22635;DHT22;11484;50.858;4.384;2023-06-14T00:35:51;22.30;55.20
22635;DHT22;11484;50.858;4.384;2023-06-14T00:38:19;22.20;55.60
22635;DHT22;11484;50.858;4.384;2023-06-14T01:01:54;22.20;55.80
22635;DHT22;11484;50.858;4.384;2023-06-14T01:04:20;22.20;56.00
22635;DHT22;11484;50.858;4.384;2023-06-14T01:14:46;22.40;55.30
22635;DHT22;11484;50.858;4.384;2023-06-14T01:17:14;22.50;56.20
22635;DHT22;11484;50.858;4.384;2023-06-14T01:19:45;22.40;55.50
22635;DHT22;11484;50.858;4.384;2023-06-14T01:22:11;22.50;56.00
22635;DHT22;11484;50.858;4.384;2023-06-14T01:24:37;22.40;56.40
22635;DHT22;11484;50.858;4.384;2023-06-14T01:27:05;22.40;56.80
22635;DHT22;11484;50.858;4.384;2023-06-14T01:29:31;22.30;56.40
22635;DHT22;11484;50.858;4.384;2023-06-14T01:31:59;22.30;56.50
22635;DHT22;11484;50.858;4.384;2023-06-14T01:34:25;22.10;56.80
22635;DHT22;11484;50.858;4.384;2023-06-14T01:36:52;22.10;57.10
22635;DHT22;11484;50.858;4.384;2023-06-14T01:39:20;22.10;56.90
22635;DHT22;11484;50.858;4.384;2023-06-14T01:41:47;22.00;57.10
22635;DHT22;11484;50.858;4.384;2023-06-14T01:44:16;22.00;57.40
22635;DHT22;11484;50.858;4.384;2023-06-14T01:46:43;21.90;57.20
22635;DHT22;11484;50.858;4.384;2023-06-14T01:49:09;21.90;57.20
22635;DHT22;11484;50.858;4.384;2023-06-14T01:51:35;21.70;57.80
22635;DHT22;11484;50.858;4.384;2023-06-14T01:54:01;21.40;58.70
22635;DHT22;11484;50.858;4.384;2023-06-14T01:56:27;21.30;59.10
22635;DHT22;11484;50.858;4.384;2023-06-14T01:58:53;21.40;58.90
22635;DHT22;11484;50.858;4.384;2023-06-14T02:01:19;21.50;59.00
22635;DHT22;11484;50.858;4.384;2023-06-14T02:03:47;21.30;59.00
22635;DHT22;11484;50.858;4.384;2023-06-14T02:06:14;21.30;59.00
22635;DHT22;11484;50.858;4.384;2023-06-14T02:08:41;21.30;58.90
22635;DHT22;11484;50.858;4.384;2023-06-14T02:11:08;21.40;59.10
22635;DHT22;11484;50.858;4.384;2023-06-14T02:13:33;21.30;59.20
22635;DHT22;11484;50.858;4.384;2023-06-14T02:16:00;21.20;59.50
22635;DHT22;11484;50.858;4.384;2023-06-14T02:18:26;21.10;59.70
22635;DHT22;11484;50.858;4.384;2023-06-14T02:20:52;21.10;59.80
22635;DHT22;11484;50.858;4.384;2023-06-14T02:23:18;21.00;60.10
22635;DHT22;11484;50.858;4.384;2023-06-14T02:25:44;21.10;59.90
22635;DHT22;11484;50.858;4.384;2023-06-14T02:28:11;21.20;59.60
22635;DHT22;11484;50.858;4.384;2023-06-14T02:30:37;21.20;59.50
22635;DHT22;11484;50.858;4.384;2023-06-14T02:33:02;21.20;59.80
22635;DHT22;11484;50.858;4.384;2023-06-14T02:35:30;21.10;59.90
22635;DHT22;11484;50.858;4.384;2023-06-14T02:37:55;21.10;60.00
22635;DHT22;11484;50.858;4.384;2023-06-14T02:40:21;21.10;60.10
22635;DHT22;11484;50.858;4.384;2023-06-14T02:42:47;21.10;60.40
22635;DHT22;11484;50.858;4.384;2023-06-14T02:45:12;21.10;60.20
22635;DHT22;11484;50.858;4.384;2023-06-14T02:47:38;21.10;60.40
22635;DHT22;11484;50.858;4.384;2023-06-14T02:50:04;21.00;60.10
22635;DHT22;11484;50.858;4.384;2023-06-14T02:52:30;21.00;60.30
22635;DHT22;11484;50.858;4.384;2023-06-14T02:54:58;20.80;60.70
22635;DHT22;11484;50.858;4.384;2023-06-14T02:57:24;20.70;60.90
22635;DHT22;11484;50.858;4.384;2023-06-14T02:59:50;20.70;61.10
22635;DHT22;11484;50.858;4.384;2023-06-14T03:02:15;20.60;61.40
22635;DHT22;11484;50.858;4.384;2023-06-14T03:04:41;20.70;61.20
22635;DHT22;11484;50.858;4.384;2023-06-14T03:07:09;20.80;61.20
22635;DHT22;11484;50.858;4.384;2023-06-14T03:09:36;20.80;61.00
22635;DHT22;11484;50.858;4.384;2023-06-14T03:12:06;20.70;61.20
22635;DHT22;11484;50.858;4.384;2023-06-14T03:14:35;20.60;61.80
22635;DHT22;11484;50.858;4.384;2023-06-14T03:17:02;20.50;62.10
22635;DHT22;11484;50.858;4.384;2023-06-14T03:19:27;20.50;62.10
22635;DHT22;11484;50.858;4.384;2023-06-14T03:21:53;20.40;62.40
22635;DHT22;11484;50.858;4.384;2023-06-14T03:24:23;20.30;62.70
22635;DHT22;11484;50.858;4.384;2023-06-14T03:26:49;20.30;62.80
22635;DHT22;11484;50.858;4.384;2023-06-14T03:29:14;20.20;63.10
22635;DHT22;11484;50.858;4.384;2023-06-14T03:31:58;20.00;63.70
22635;DHT22;11484;50.858;4.384;2023-06-14T03:34:24;20.10;63.60
22635;DHT22;11484;50.858;4.384;2023-06-14T03:36:50;20.10;63.50
22635;DHT22;11484;50.858;4.384;2023-06-14T03:39:16;20.10;63.40
22635;DHT22;11484;50.858;4.384;2023-06-14T03:41:41;20.00;63.50
22635;DHT22;11484;50.858;4.384;2023-06-14T03:44:07;20.00;63.90
22635;DHT22;11484;50.858;4.384;2023-06-14T03:46:33;20.00;63.80
22635;DHT22;11484;50.858;4.384;2023-06-14T03:48:58;20.00;63.80
22635;DHT22;11484;50.858;4.384;2023-06-14T03:51:24;20.00;64.00
22635;DHT22;11484;50.858;4.384;2023-06-14T03:53:50;20.00;64.20
22635;DHT22;11484;50.858;4.384;2023-06-14T03:56:16;20.00;64.20
22635;DHT22;11484;50.858;4.384;2023-06-14T03:58:42;20.00;64.00
22635;DHT22;11484;50.858;4.384;2023-06-14T04:01:07;19.80;64.60
22635;DHT22;11484;50.858;4.384;2023-06-14T04:03:33;19.80;64.70
22635;DHT22;11484;50.858;4.384;2023-06-14T04:05:59;19.70;65.10
22635;DHT22;11484;50.858;4.384;2023-06-14T04:08:25;19.60;65.60
22635;DHT22;11484;50.858;4.384;2023-06-14T04:10:51;19.50;65.90
22635;DHT22;11484;50.858;4.384;2023-06-14T04:13:17;19.40;66.20
22635;DHT22;11484;50.858;4.384;2023-06-14T04:15:43;19.30;66.30
22635;DHT22;11484;50.858;4.384;2023-06-14T04:18:12;19.30;66.30
22635;DHT22;11484;50.858;4.384;2023-06-14T04:20:37;19.30;66.30
22635;DHT22;11484;50.858;4.384;2023-06-14T04:23:14;19.30;66.50
22635;DHT22;11484;50.858;4.384;2023-06-14T04:25:40;19.30;66.70
22635;DHT22;11484;50.858;4.384;2023-06-14T04:28:10;19.30;66.80
22635;DHT22;11484;50.858;4.384;2023-06-14T04:30:36;19.20;66.80
22635;DHT22;11484;50.858;4.384;2023-06-14T04:33:04;19.20;66.90
22635;DHT22;11484;50.858;4.384;2023-06-14T04:35:31;19.20;66.90
22635;DHT22;11484;50.858;4.384;2023-06-14T04:38:02;19.20;67.10
22635;DHT22;11484;50.858;4.384;2023-06-14T04:40:30;19.30;66.90
22635;DHT22;11484;50.858;4.384;2023-06-14T04:42:56;19.30;66.70
22635;DHT22;11484;50.858;4.384;2023-06-14T04:45:23;19.20;67.00
22635;DHT22;11484;50.858;4.384;2023-06-14T04:47:49;19.20;66.80
22635;DHT22;11484;50.858;4.384;2023-06-14T04:50:17;19.20;67.10
22635;DHT22;11484;50.858;4.384;2023-06-14T04:52:43;19.30;67.20
22635;DHT22;11484;50.858;4.384;2023-06-14T04:55:09;19.30;67.10
22635;DHT22;11484;50.858;4.384;2023-06-14T04:57:35;19.20;67.20
22635;DHT22;11484;50.858;4.384;2023-06-14T05:00:04;19.30;67.00
22635;DHT22;11484;50.858;4.384;2023-06-14T05:02:31;19.40;67.20
22635;DHT22;11484;50.858;4.384;2023-06-14T05:04:57;19.40;66.80
22635;DHT22;11484;50.858;4.384;2023-06-14T05:07:23;19.40;66.80
22635;DHT22;11484;50.858;4.384;2023-06-14T05:09:49;19.40;67.20
22635;DHT22;11484;50.858;4.384;2023-06-14T05:12:15;19.30;67.00
22635;DHT22;11484;50.858;4.384;2023-06-14T05:14:44;19.30;67.50
22635;DHT22;11484;50.858;4.384;2023-06-14T05:17:10;19.30;67.50
22635;DHT22;11484;50.858;4.384;2023-06-14T05:19:35;19.30;67.30
22635;DHT22;11484;50.858;4.384;2023-06-14T05:22:01;19.20;67.40
22635;DHT22;11484;50.858;4.384;2023-06-14T05:24:28;19.20;67.40
22635;DHT22;11484;50.858;4.384;2023-06-14T05:26:56;19.30;67.50
22635;DHT22;11484;50.858;4.384;2023-06-14T05:29:22;19.50;67.00
22635;DHT22;11484;50.858;4.384;2023-06-14T05:31:48;19.70;66.40
22635;DHT22;11484;50.858;4.384;2023-06-14T05:34:13;19.90;65.90
22635;DHT22;11484;50.858;4.384;2023-06-14T05:36:39;20.00;65.30
22635;DHT22;11484;50.858;4.384;2023-06-14T05:39:05;20.20;65.20
22635;DHT22;11484;50.858;4.384;2023-06-14T05:41:32;20.20;64.80
22635;DHT22;11484;50.858;4.384;2023-06-14T05:43:58;20.30;64.90
22635;DHT22;11484;50.858;4.384;2023-06-14T05:46:25;20.40;64.40
22635;DHT22;11484;50.858;4.384;2023-06-14T05:48:52;20.70;63.80
22635;DHT22;11484;50.858;4.384;2023-06-14T05:51:18;20.80;63.30
22635;DHT22;11484;50.858;4.384;2023-06-14T05:53:47;21.10;63.20
22635;DHT22;11484;50.858;4.384;2023-06-14T05:56:14;21.30;61.70
22635;DHT22;11484;50.858;4.384;2023-06-14T05:58:40;21.50;61.60
22635;DHT22;11484;50.858;4.384;2023-06-14T06:01:05;21.80;61.30
22635;DHT22;11484;50.858;4.384;2023-06-14T06:03:31;22.10;60.40
22635;DHT22;11484;50.858;4.384;2023-06-14T06:05:58;22.60;59.70
22635;DHT22;11484;50.858;4.384;2023-06-14T06:08:23;23.20;57.60
22635;DHT22;11484;50.858;4.384;2023-06-14T06:10:49;24.30;56.40
22635;DHT22;11484;50.858;4.384;2023-06-14T06:13:15;25.60;54.10
22635;DHT22;11484;50.858;4.384;2023-06-14T06:15:41;26.40;52.20
22635;DHT22;11484;50.858;4.384;2023-06-14T06:18:07;27.30;50.60
22635;DHT22;11484;50.858;4.384;2023-06-14T06:20:33;28.10;49.00
22635;DHT22;11484;50.858;4.384;2023-06-14T06:22:59;28.10;47.50
22635;DHT22;11484;50.858;4.384;2023-06-14T06:25:26;28.70;47.40
22635;DHT22;11484;50.858;4.384;2023-06-14T06:27:53;29.00;47.10
22635;DHT22;11484;50.858;4.384;2023-06-14T06:30:19;29.30;46.30
22635;DHT22;11484;50.858;4.384;2023-06-14T06:32:46;29.30;46.00
22635;DHT22;11484;50.858;4.384;2023-06-14T06:35:12;30.00;44.80
22635;DHT22;11484;50.858;4.384;2023-06-14T06:37:39;29.20;45.40
22635;DHT22;11484;50.858;4.384;2023-06-14T06:40:05;30.10;44.50
22635;DHT22;11484;50.858;4.384;2023-06-14T06:42:32;30.40;43.60
22635;DHT22;11484;50.858;4.384;2023-06-14T06:44:57;30.60;42.90
22635;DHT22;11484;50.858;4.384;2023-06-14T06:47:23;30.40;43.30
22635;DHT22;11484;50.858;4.384;2023-06-14T06:49:50;31.10;43.10
22635;DHT22;11484;50.858;4.384;2023-06-14T06:52:16;32.10;41.10
22635;DHT22;11484;50.858;4.384;2023-06-14T06:54:42;32.30;40.40
22635;DHT22;11484;50.858;4.384;2023-06-14T06:57:08;32.50;40.00
22635;DHT22;11484;50.858;4.384;2023-06-14T06:59:34;32.10;40.40
22635;DHT22;11484;50.858;4.384;2023-06-14T07:02:00;32.60;40.90
22635;DHT22;11484;50.858;4.384;2023-06-14T07:04:26;33.60;39.50
22635;DHT22;11484;50.858;4.384;2023-06-14T07:06:52;34.50;38.50
22635;DHT22;11484;50.858;4.384;2023-06-14T07:09:17;34.60;37.80
22635;DHT22;11484;50.858;4.384;2023-06-14T07:11:46;33.40;39.20
22635;DHT22;11484;50.858;4.384;2023-06-14T07:14:12;34.10;39.10
22635;DHT22;11484;50.858;4.384;2023-06-14T07:16:41;34.20;38.50
22635;DHT22;11484;50.858;4.384;2023-06-14T07:19:07;35.10;38.30
22635;DHT22;11484;50.858;4.384;2023-06-14T07:21:34;34.90;37.30
22635;DHT22;11484;50.858;4.384;2023-06-14T07:24:07;35.30;36.90
22635;DHT22;11484;50.858;4.384;2023-06-14T07:26:33;36.40;36.00
22635;DHT22;11484;50.858;4.384;2023-06-14T07:28:59;35.90;36.20
22635;DHT22;11484;50.858;4.384;2023-06-14T07:31:25;36.00;37.00
22635;DHT22;11484;50.858;4.384;2023-06-14T07:33:52;37.20;36.50
22635;DHT22;11484;50.858;4.384;2023-06-14T07:36:17;38.00;35.00
22635;DHT22;11484;50.858;4.384;2023-06-14T07:38:43;37.90;34.90
22635;DHT22;11484;50.858;4.384;2023-06-14T07:41:09;39.00;34.50
22635;DHT22;11484;50.858;4.384;2023-06-14T07:43:35;38.90;33.60
22635;DHT22;11484;50.858;4.384;2023-06-14T07:46:01;39.10;33.30
22635;DHT22;11484;50.858;4.384;2023-06-14T07:48:27;38.60;33.60
22635;DHT22;11484;50.858;4.384;2023-06-14T07:50:53;38.90;33.70
22635;DHT22;11484;50.858;4.384;2023-06-14T07:53:19;39.20;32.60
22635;DHT22;11484;50.858;4.384;2023-06-14T07:55:45;39.10;32.90
22635;DHT22;11484;50.858;4.384;2023-06-14T07:58:12;39.00;32.70
22635;DHT22;11484;50.858;4.384;2023-06-14T08:00:38;39.50;32.70
22635;DHT22;11484;50.858;4.384;2023-06-14T08:03:04;39.10;32.70
22635;DHT22;11484;50.858;4.384;2023-06-14T08:05:30;39.50;32.40
22635;DHT22;11484;50.858;4.384;2023-06-14T08:07:56;39.50;32.00
22635;DHT22;11484;50.858;4.384;2023-06-14T08:10:22;39.70;31.90
22635;DHT22;11484;50.858;4.384;2023-06-14T08:12:48;38.70;32.20
22635;DHT22;11484;50.858;4.384;2023-06-14T08:15:18;38.20;33.40
22635;DHT22;11484;50.858;4.384;2023-06-14T08:17:44;38.80;33.00
22635;DHT22;11484;50.858;4.384;2023-06-14T08:20:11;39.40;31.20
22635;DHT22;11484;50.858;4.384;2023-06-14T08:22:37;38.90;31.30
22635;DHT22;11484;50.858;4.384;2023-06-14T08:25:03;38.60;32.70
22635;DHT22;11484;50.858;4.384;2023-06-14T08:27:30;38.80;32.80
22635;DHT22;11484;50.858;4.384;2023-06-14T08:29:55;40.00;31.40
22635;DHT22;11484;50.858;4.384;2023-06-14T08:32:22;41.10;30.70
22635;DHT22;11484;50.858;4.384;2023-06-14T08:34:48;41.30;30.70
22635;DHT22;11484;50.858;4.384;2023-06-14T08:37:15;40.70;30.70
22635;DHT22;11484;50.858;4.384;2023-06-14T08:39:40;40.40;30.70
22635;DHT22;11484;50.858;4.384;2023-06-14T08:42:07;39.50;31.00
22635;DHT22;11484;50.858;4.384;2023-06-14T08:44:34;38.90;31.10
22635;DHT22;11484;50.858;4.384;2023-06-14T08:47:00;37.10;33.00
22635;DHT22;11484;50.858;4.384;2023-06-14T08:49:26;36.00;35.00
22635;DHT22;11484;50.858;4.384;2023-06-14T08:51:58;35.80;36.00
22635;DHT22;11484;50.858;4.384;2023-06-14T08:54:28;36.80;35.30
22635;DHT22;11484;50.858;4.384;2023-06-14T08:56:56;38.20;34.50
22635;DHT22;11484;50.858;4.384;2023-06-14T08:59:28;39.30;32.40
22635;DHT22;11484;50.858;4.384;2023-06-14T09:01:56;39.70;32.90
22635;DHT22;11484;50.858;4.384;2023-06-14T09:04:22;40.20;32.10
22635;DHT22;11484;50.858;4.384;2023-06-14T09:06:49;40.30;32.50
22635;DHT22;11484;50.858;4.384;2023-06-14T09:09:20;40.50;32.70
22635;DHT22;11484;50.858;4.384;2023-06-14T09:11:46;40.20;32.00
22635;DHT22;11484;50.858;4.384;2023-06-14T09:14:12;39.80;32.70
22635;DHT22;11484;50.858;4.384;2023-06-14T09:16:38;39.00;33.60
22635;DHT22;11484;50.858;4.384;2023-06-14T09:19:04;39.00;33.10
22635;DHT22;11484;50.858;4.384;2023-06-14T09:21:33;38.30;33.30
22635;DHT22;11484;50.858;4.384;2023-06-14T09:23:59;38.10;32.70
22635;DHT22;11484;50.858;4.384;2023-06-14T09:26:26;37.80;33.30
22635;DHT22;11484;50.858;4.384;2023-06-14T09:28:53;37.40;33.80
22635;DHT22;11484;50.858;4.384;2023-06-14T09:31:20;36.60;34.80
22635;DHT22;11484;50.858;4.384;2023-06-14T09:33:47;37.00;34.80
22635;DHT22;11484;50.858;4.384;2023-06-14T09:36:24;36.50;35.50
22635;DHT22;11484;50.858;4.384;2023-06-14T09:38:58;36.80;35.20
22635;DHT22;11484;50.858;4.384;2023-06-14T09:41:31;36.60;35.10
22635;DHT22;11484;50.858;4.384;2023-06-14T09:43:59;36.90;34.90
22635;DHT22;11484;50.858;4.384;2023-06-14T09:46:29;37.80;34.10
22635;DHT22;11484;50.858;4.384;2023-06-14T09:48:59;38.60;33.20
22635;DHT22;11484;50.858;4.384;2023-06-14T09:51:26;38.40;32.40
22635;DHT22;11484;50.858;4.384;2023-06-14T09:53:59;38.60;32.60
22635;DHT22;11484;50.858;4.384;2023-06-14T09:56:40;38.00;33.20
22635;DHT22;11484;50.858;4.384;2023-06-14T09:59:09;37.20;33.70
22635;DHT22;11484;50.858;4.384;2023-06-14T10:01:39;37.30;33.30
22635;DHT22;11484;50.858;4.384;2023-06-14T10:04:07;37.40;33.00
22635;DHT22;11484;50.858;4.384;2023-06-14T10:06:36;37.80;32.60
22635;DHT22;11484;50.858;4.384;2023-06-14T10:09:04;38.30;31.80
22635;DHT22;11484;50.858;4.384;2023-06-14T10:11:31;37.70;31.60
22635;DHT22;11484;50.858;4.384;2023-06-14T10:13:58;38.50;31.80
22635;DHT22;11484;50.858;4.384;2023-06-14T10:19:18;35.70;33.60
22635;DHT22;11484;50.858;4.384;2023-06-14T10:21:54;35.60;34.20
22635;DHT22;11484;50.858;4.384;2023-06-14T10:24:30;34.70;34.60
22635;DHT22;11484;50.858;4.384;2023-06-14T10:26:58;34.30;35.40
22635;DHT22;11484;50.858;4.384;2023-06-14T10:29:28;34.50;34.70
22635;DHT22;11484;50.858;4.384;2023-06-14T10:31:59;34.30;35.60
22635;DHT22;11484;50.858;4.384;2023-06-14T10:34:27;35.30;34.50
22635;DHT22;11484;50.858;4.384;2023-06-14T10:37:04;34.40;35.10
22635;DHT22;11484;50.858;4.384;2023-06-14T10:39:32;34.60;35.20
22635;DHT22;11484;50.858;4.384;2023-06-14T10:42:01;35.30;33.00
22635;DHT22;11484;50.858;4.384;2023-06-14T10:44:31;34.70;33.20
22635;DHT22;11484;50.858;4.384;2023-06-14T10:47:01;33.80;34.50
22635;DHT22;11484;50.858;4.384;2023-06-14T10:49:42;33.10;35.80
22635;DHT22;11484;50.858;4.384;2023-06-14T10:52:10;32.70;36.30
22635;DHT22;11484;50.858;4.384;2023-06-14T10:57:30;31.20;37.50
22635;DHT22;11484;50.858;4.384;2023-06-14T10:59:59;30.90;38.60
22635;DHT22;11484;50.858;4.384;2023-06-14T11:05:27;31.00;37.90
22635;DHT22;11484;50.858;4.384;2023-06-14T11:08:36;30.90;38.50
22635;DHT22;11484;50.858;4.384;2023-06-14T11:11:08;30.90;38.30
22635;DHT22;11484;50.858;4.384;2023-06-14T11:13:41;30.50;39.10
22635;DHT22;11484;50.858;4.384;2023-06-14T11:16:11;30.40;39.40
22635;DHT22;11484;50.858;4.384;2023-06-14T11:18:37;30.40;39.40
22635;DHT22;11484;50.858;4.384;2023-06-14T11:21:03;30.30;39.30
22635;DHT22;11484;50.858;4.384;2023-06-14T11:23:29;30.10;39.60
22635;DHT22;11484;50.858;4.384;2023-06-14T11:25:55;30.00;40.60
22635;DHT22;11484;50.858;4.384;2023-06-14T11:28:20;29.90;39.90
22635;DHT22;11484;50.858;4.384;2023-06-14T11:30:48;29.80;40.00
22635;DHT22;11484;50.858;4.384;2023-06-14T11:33:18;29.30;40.20
22635;DHT22;11484;50.858;4.384;2023-06-14T11:35:46;29.20;40.90
22635;DHT22;11484;50.858;4.384;2023-06-14T11:38:13;29.30;40.50
22635;DHT22;11484;50.858;4.384;2023-06-14T11:40:39;29.10;41.00
22635;DHT22;11484;50.858;4.384;2023-06-14T11:43:05;29.30;41.00
22635;DHT22;11484;50.858;4.384;2023-06-14T11:45:31;29.20;40.30
22635;DHT22;11484;50.858;4.384;2023-06-14T11:47:58;29.20;40.30
22635;DHT22;11484;50.858;4.384;2023-06-14T11:50:24;29.40;40.90
22635;DHT22;11484;50.858;4.384;2023-06-14T11:52:58;29.20;40.00
22635;DHT22;11484;50.858;4.384;2023-06-14T11:55:25;29.20;40.60
22635;DHT22;11484;50.858;4.384;2023-06-14T11:57:53;29.10;40.50
22635;DHT22;11484;50.858;4.384;2023-06-14T12:00:19;29.00;40.50
22635;DHT22;11484;50.858;4.384;2023-06-14T12:02:53;29.00;40.30
22635;DHT22;11484;50.858;4.384;2023-06-14T12:05:23;29.20;39.80
22635;DHT22;11484;50.858;4.384;2023-06-14T12:07:50;29.10;40.00
22635;DHT22;11484;50.858;4.384;2023-06-14T12:10:19;29.30;40.30
22635;DHT22;11484;50.858;4.384;2023-06-14T12:12:45;29.30;39.10
22635;DHT22;11484;50.858;4.384;2023-06-14T12:15:11;29.20;39.20
22635;DHT22;11484;50.858;4.384;2023-06-14T12:17:38;29.20;39.40
22635;DHT22;11484;50.858;4.384;2023-06-14T12:20:12;28.80;39.70
22635;DHT22;11484;50.858;4.384;2023-06-14T12:22:58;28.80;40.70
22635;DHT22;11484;50.858;4.384;2023-06-14T12:28:03;28.60;39.40
22635;DHT22;11484;50.858;4.384;2023-06-14T12:30:29;28.60;39.10
22635;DHT22;11484;50.858;4.384;2023-06-14T12:32:55;28.60;39.00
22635;DHT22;11484;50.858;4.384;2023-06-14T12:35:20;28.50;39.60
22635;DHT22;11484;50.858;4.384;2023-06-14T12:37:46;28.50;40.00
22635;DHT22;11484;50.858;4.384;2023-06-14T12:40:13;28.60;39.90
22635;DHT22;11484;50.858;4.384;2023-06-14T12:42:40;28.60;39.50
22635;DHT22;11484;50.858;4.384;2023-06-14T12:45:07;28.60;38.60
22635;DHT22;11484;50.858;4.384;2023-06-14T12:47:32;28.80;38.90
22635;DHT22;11484;50.858;4.384;2023-06-14T12:49:58;28.90;39.10
22635;DHT22;11484;50.858;4.384;2023-06-14T12:52:24;29.00;39.10
22635;DHT22;11484;50.858;4.384;2023-06-14T12:54:50;28.90;39.80
22635;DHT22;11484;50.858;4.384;2023-06-14T12:57:15;28.70;40.20
22635;DHT22;11484;50.858;4.384;2023-06-14T12:59:41;28.60;39.70
22635;DHT22;11484;50.858;4.384;2023-06-14T13:02:15;28.60;39.50
22635;DHT22;11484;50.858;4.384;2023-06-14T13:04:41;28.70;40.00
22635;DHT22;11484;50.858;4.384;2023-06-14T13:07:06;28.90;39.90
22635;DHT22;11484;50.858;4.384;2023-06-14T13:09:32;29.00;39.80
22635;DHT22;11484;50.858;4.384;2023-06-14T13:11:58;29.10;39.60
22635;DHT22;11484;50.858;4.384;2023-06-14T13:14:24;29.20;39.90
22635;DHT22;11484;50.858;4.384;2023-06-14T13:16:50;29.20;39.00
22635;DHT22;11484;50.858;4.384;2023-06-14T13:19:16;29.00;39.80
22635;DHT22;11484;50.858;4.384;2023-06-14T13:21:41;28.60;39.90
22635;DHT22;11484;50.858;4.384;2023-06-14T13:24:07;28.50;40.40
22635;DHT22;11484;50.858;4.384;2023-06-14T13:26:34;28.70;40.80
22635;DHT22;11484;50.858;4.384;2023-06-14T13:29:00;28.90;41.00
22635;DHT22;11484;50.858;4.384;2023-06-14T13:31:26;28.80;39.80
22635;DHT22;11484;50.858;4.384;2023-06-14T13:33:52;28.70;39.20
22635;DHT22;11484;50.858;4.384;2023-06-14T13:36:17;28.60;40.00
22635;DHT22;11484;50.858;4.384;2023-06-14T13:38:43;28.60;40.30
22635;DHT22;11484;50.858;4.384;2023-06-14T13:41:09;28.60;39.80
22635;DHT22;11484;50.858;4.384;2023-06-14T13:43:35;28.50;39.30
22635;DHT22;11484;50.858;4.384;2023-06-14T13:46:00;28.20;39.20
22635;DHT22;11484;50.858;4.384;2023-06-14T13:48:26;28.10;39.00
22635;DHT22;11484;50.858;4.384;2023-06-14T13:50:52;28.20;38.60
22635;DHT22;11484;50.858;4.384;2023-06-14T13:53:18;28.10;38.50
22635;DHT22;11484;50.858;4.384;2023-06-14T13:55:44;27.90;38.80
22635;DHT22;11484;50.858;4.384;2023-06-14T13:58:09;27.90;38.70
22635;DHT22;11484;50.858;4.384;2023-06-14T14:00:35;28.10;38.70
22635;DHT22;11484;50.858;4.384;2023-06-14T14:03:06;28.20;37.90
22635;DHT22;11484;50.858;4.384;2023-06-14T14:05:31;28.30;37.90
22635;DHT22;11484;50.858;4.384;2023-06-14T14:07:57;28.10;39.00
22635;DHT22;11484;50.858;4.384;2023-06-14T14:10:24;28.00;39.20
22635;DHT22;11484;50.858;4.384;2023-06-14T14:12:51;27.80;39.30
22635;DHT22;11484;50.858;4.384;2023-06-14T14:15:17;27.60;40.00
22635;DHT22;11484;50.858;4.384;2023-06-14T14:17:43;27.70;40.10
22635;DHT22;11484;50.858;4.384;2023-06-14T14:20:09;27.60;39.50
22635;DHT22;11484;50.858;4.384;2023-06-14T14:22:37;27.70;39.50
22635;DHT22;11484;50.858;4.384;2023-06-14T14:25:02;27.60;39.00
22635;DHT22;11484;50.858;4.384;2023-06-14T14:27:28;27.80;38.80
22635;DHT22;11484;50.858;4.384;2023-06-14T14:29:54;28.00;38.60
22635;DHT22;11484;50.858;4.384;2023-06-14T14:32:20;27.90;38.00
22635;DHT22;11484;50.858;4.384;2023-06-14T14:34:45;27.80;38.60
22635;DHT22;11484;50.858;4.384;2023-06-14T14:37:11;27.70;38.50
22635;DHT22;11484;50.858;4.384;2023-06-14T14:39:38;27.80;38.50
22635;DHT22;11484;50.858;4.384;2023-06-14T14:42:04;28.00;38.00
22635;DHT22;11484;50.858;4.384;2023-06-14T14:44:30;28.00;38.30
22635;DHT22;11484;50.858;4.384;2023-06-14T14:46:56;27.90;38.40
22635;DHT22;11484;50.858;4.384;2023-06-14T14:49:22;27.60;38.20
22635;DHT22;11484;50.858;4.384;2023-06-14T14:51:48;27.50;38.50
22635;DHT22;11484;50.858;4.384;2023-06-14T14:54:13;27.70;38.80
22635;DHT22;11484;50.858;4.384;2023-06-14T14:56:39;27.80;37.90
22635;DHT22;11484;50.858;4.384;2023-06-14T14:59:05;27.90;37.40
22635;DHT22;11484;50.858;4.384;2023-06-14T15:01:30;28.10;37.60
22635;DHT22;11484;50.858;4.384;2023-06-14T15:03:56;28.10;37.40
22635;DHT22;11484;50.858;4.384;2023-06-14T15:06:22;28.00;37.10
22635;DHT22;11484;50.858;4.384;2023-06-14T15:08:47;27.80;37.90
22635;DHT22;11484;50.858;4.384;2023-06-14T15:11:13;27.70;38.40
22635;DHT22;11484;50.858;4.384;2023-06-14T15:13:39;27.70;38.20
22635;DHT22;11484;50.858;4.384;2023-06-14T15:16:04;27.50;37.80
22635;DHT22;11484;50.858;4.384;2023-06-14T15:18:30;27.60;38.10
22635;DHT22;11484;50.858;4.384;2023-06-14T15:20:58;27.70;38.40
22635;DHT22;11484;50.858;4.384;2023-06-14T15:23:27;27.80;39.20
22635;DHT22;11484;50.858;4.384;2023-06-14T15:25:55;27.80;38.30
22635;DHT22;11484;50.858;4.384;2023-06-14T15:28:22;27.80;38.80
22635;DHT22;11484;50.858;4.384;2023-06-14T15:30:50;27.70;39.00
22635;DHT22;11484;50.858;4.384;2023-06-14T15:33:15;27.70;39.50
22635;DHT22;11484;50.858;4.384;2023-06-14T15:35:41;27.50;39.90
22635;DHT22;11484;50.858;4.384;2023-06-14T15:38:07;27.50;40.00
22635;DHT22;11484;50.858;4.384;2023-06-14T15:40:33;27.40;39.80
22635;DHT22;11484;50.858;4.384;2023-06-14T15:42:59;27.50;40.10
22635;DHT22;11484;50.858;4.384;2023-06-14T15:45:25;27.30;39.40
22635;DHT22;11484;50.858;4.384;2023-06-14T15:47:51;27.20;39.70
22635;DHT22;11484;50.858;4.384;2023-06-14T15:50:17;27.20;40.00
22635;DHT22;11484;50.858;4.384;2023-06-14T15:52:43;27.20;40.40
22635;DHT22;11484;50.858;4.384;2023-06-14T15:55:10;27.30;40.40
22635;DHT22;11484;50.858;4.384;2023-06-14T15:57:37;27.40;40.60
22635;DHT22;11484;50.858;4.384;2023-06-14T16:00:03;27.40;39.40
22635;DHT22;11484;50.858;4.384;2023-06-14T16:02:29;27.40;39.50
22635;DHT22;11484;50.858;4.384;2023-06-14T16:04:55;27.40;39.40
22635;DHT22;11484;50.858;4.384;2023-06-14T16:07:22;27.30;39.60
22635;DHT22;11484;50.858;4.384;2023-06-14T16:09:49;27.30;40.00